KBGE/BGE METAR and TAF weather

Enter ICAO airport designator
Station Type Date Time Source
KBGE METAR 2020/10/29 17:15 UTC NOAA

KBGE 291715Z AUTO 21008KT 10SM SCT010 BKN014 OVC039 25/24 A2979 RMK AO2 T02540242


Station Type Date Time Source
KBGE Decoded METAR 2020/10/29 17:15 UTC NOAA

Bainbridge, Decatur County Industrial Air Park Airport, GA, United States (KBGE) 30-58N 084-38W
Oct 29, 2020 - 01:15 PM EDT / 2020.10.29 1715 UTC
Wind: from the SSW (210 degrees) at 9 MPH (8 KT):0
Visibility: 10 mile(s):0
Sky conditions: overcast
Temperature: 77.7 F (25.4 C)
Dew Point: 75.6 F (24.2 C)
Relative Humidity: 93%
Pressure (altimeter): 29.79 in. Hg (1008 hPa)
ob: KBGE 291715Z AUTO 21008KT 10SM SCT010 BKN014 OVC039 25/24 A2979 RMK AO2 T02540242
cycle: 17

Station Type Date Time Source
KBGE TAF UTC NOAA

Error!

Example: see airport list